sensor_id;sensor_type;location;lat;lon;timestamp;pressure;altitude;pressure_sealevel;temperature;humidity
56038;BME280;41907;47.848;9.000;2024-02-16T00:02:04;95680.66;;;6.75;100.00
56038;BME280;41907;47.848;9.000;2024-02-16T00:04:29;95685.03;;;6.66;100.00
56038;BME280;41907;47.848;9.000;2024-02-16T00:06:56;95679.75;;;6.61;100.00
56038;BME280;41907;47.848;9.000;2024-02-16T00:09:21;95682.28;;;6.71;100.00
56038;BME280;41907;47.848;9.000;2024-02-16T00:11:47;95681.84;;;6.64;100.00
56038;BME280;41907;47.848;9.000;2024-02-16T00:14:13;95689.53;;;6.65;100.00
56038;BME280;41907;47.848;9.000;2024-02-16T00:16:39;95692.56;;;6.78;100.00
56038;BME280;41907;47.848;9.000;2024-02-16T00:19:04;95689.84;;;6.83;100.00
56038;BME280;41907;47.848;9.000;2024-02-16T00:21:30;95697.66;;;6.93;100.00
56038;BME280;41907;47.848;9.000;2024-02-16T00:23:55;95695.41;;;7.05;100.00
56038;BME280;41907;47.848;9.000;2024-02-16T00:26:21;95701.41;;;7.10;100.00
56038;BME280;41907;47.848;9.000;2024-02-16T00:28:46;95703.28;;;7.10;100.00
56038;BME280;41907;47.848;9.000;2024-02-16T00:31:12;95703.06;;;7.06;100.00
56038;BME280;41907;47.848;9.000;2024-02-16T00:33:37;95697.81;;;7.01;100.00
56038;BME280;41907;47.848;9.000;2024-02-16T00:36:02;95700.41;;;6.88;100.00
56038;BME280;41907;47.848;9.000;2024-02-16T00:38:28;95698.75;;;6.92;100.00
56038;BME280;41907;47.848;9.000;2024-02-16T00:40:53;95695.56;;;6.90;100.00
56038;BME280;41907;47.848;9.000;2024-02-16T00:43:18;95691.69;;;6.82;100.00
56038;BME280;41907;47.848;9.000;2024-02-16T00:45:44;95695.44;;;6.81;100.00
56038;BME280;41907;47.848;9.000;2024-02-16T00:48:10;95688.34;;;6.77;100.00
56038;BME280;41907;47.848;9.000;2024-02-16T00:50:35;95675.66;;;6.73;100.00
56038;BME280;41907;47.848;9.000;2024-02-16T00:53:01;95679.53;;;6.81;100.00
56038;BME280;41907;47.848;9.000;2024-02-16T00:55:26;95678.97;;;6.84;100.00
56038;BME280;41907;47.848;9.000;2024-02-16T00:57:51;95677.09;;;6.85;100.00
56038;BME280;41907;47.848;9.000;2024-02-16T01:00:17;95677.66;;;6.82;100.00
56038;BME280;41907;47.848;9.000;2024-02-16T01:02:44;95680.09;;;6.78;100.00
56038;BME280;41907;47.848;9.000;2024-02-16T01:05:09;95678.69;;;6.62;100.00
56038;BME280;41907;47.848;9.000;2024-02-16T01:07:36;95671.97;;;6.51;100.00
56038;BME280;41907;47.848;9.000;2024-02-16T01:10:01;95674.03;;;6.54;100.00
56038;BME280;41907;47.848;9.000;2024-02-16T01:12:28;95671.09;;;6.55;100.00
56038;BME280;41907;47.848;9.000;2024-02-16T01:14:56;95671.38;;;6.54;100.00
56038;BME280;41907;47.848;9.000;2024-02-16T01:17:21;95671.66;;;6.52;100.00
56038;BME280;41907;47.848;9.000;2024-02-16T01:19:46;95671.88;;;6.56;100.00
56038;BME280;41907;47.848;9.000;2024-02-16T01:22:12;95667.88;;;6.58;100.00
56038;BME280;41907;47.848;9.000;2024-02-16T01:24:37;95674.25;;;6.57;100.00
56038;BME280;41907;47.848;9.000;2024-02-16T01:27:03;95669.78;;;6.53;100.00
56038;BME280;41907;47.848;9.000;2024-02-16T01:29:28;95673.59;;;6.47;100.00
56038;BME280;41907;47.848;9.000;2024-02-16T01:31:54;95670.38;;;6.50;100.00
56038;BME280;41907;47.848;9.000;2024-02-16T01:34:19;95670.59;;;6.53;100.00
56038;BME280;41907;47.848;9.000;2024-02-16T01:36:44;95671.25;;;6.64;100.00
56038;BME280;41907;47.848;9.000;2024-02-16T01:39:10;95673.41;;;6.62;100.00
56038;BME280;41907;47.848;9.000;2024-02-16T01:41:38;95676.13;;;6.57;100.00
56038;BME280;41907;47.848;9.000;2024-02-16T01:44:04;95673.47;;;6.57;100.00
56038;BME280;41907;47.848;9.000;2024-02-16T01:46:30;95678.50;;;6.58;100.00
56038;BME280;41907;47.848;9.000;2024-02-16T01:48:56;95678.69;;;6.62;100.00
56038;BME280;41907;47.848;9.000;2024-02-16T01:51:23;95670.63;;;6.72;100.00
56038;BME280;41907;47.848;9.000;2024-02-16T01:53:49;95675.13;;;6.71;100.00
56038;BME280;41907;47.848;9.000;2024-02-16T01:56:15;95673.63;;;6.65;100.00
56038;BME280;41907;47.848;9.000;2024-02-16T01:58:41;95679.03;;;6.79;100.00
56038;BME280;41907;47.848;9.000;2024-02-16T02:01:07;95686.22;;;6.97;100.00
56038;BME280;41907;47.848;9.000;2024-02-16T02:03:32;95681.34;;;7.04;100.00
56038;BME280;41907;47.848;9.000;2024-02-16T02:05:58;95679.63;;;6.95;100.00
56038;BME280;41907;47.848;9.000;2024-02-16T02:08:25;95690.22;;;6.95;100.00
56038;BME280;41907;47.848;9.000;2024-02-16T02:10:51;95688.22;;;6.87;100.00
56038;BME280;41907;47.848;9.000;2024-02-16T02:13:17;95695.03;;;6.93;100.00
56038;BME280;41907;47.848;9.000;2024-02-16T02:15:44;95694.38;;;7.01;100.00
56038;BME280;41907;47.848;9.000;2024-02-16T02:18:09;95696.19;;;7.05;100.00
56038;BME280;41907;47.848;9.000;2024-02-16T02:20:35;95692.38;;;7.12;100.00
56038;BME280;41907;47.848;9.000;2024-02-16T02:23:00;95693.19;;;7.12;100.00
56038;BME280;41907;47.848;9.000;2024-02-16T02:25:25;95695.03;;;7.12;100.00
56038;BME280;41907;47.848;9.000;2024-02-16T02:27:53;95693.47;;;7.10;100.00
56038;BME280;41907;47.848;9.000;2024-02-16T02:30:19;95690.88;;;7.05;100.00
56038;BME280;41907;47.848;9.000;2024-02-16T02:32:46;95684.78;;;7.05;100.00
56038;BME280;41907;47.848;9.000;2024-02-16T02:35:11;95683.69;;;6.87;100.00
56038;BME280;41907;47.848;9.000;2024-02-16T02:37:39;95690.22;;;6.95;100.00
56038;BME280;41907;47.848;9.000;2024-02-16T02:40:05;95691.72;;;7.01;100.00
56038;BME280;41907;47.848;9.000;2024-02-16T02:42:33;95691.53;;;6.97;100.00
56038;BME280;41907;47.848;9.000;2024-02-16T02:44:58;95687.78;;;6.98;100.00
56038;BME280;41907;47.848;9.000;2024-02-16T02:47:24;95684.06;;;6.99;100.00
56038;BME280;41907;47.848;9.000;2024-02-16T02:49:49;95681.72;;;6.98;100.00
56038;BME280;41907;47.848;9.000;2024-02-16T02:52:14;95677.25;;;6.93;100.00
56038;BME280;41907;47.848;9.000;2024-02-16T02:54:40;95675.75;;;6.87;100.00
56038;BME280;41907;47.848;9.000;2024-02-16T02:57:06;95674.00;;;6.78;100.00
56038;BME280;41907;47.848;9.000;2024-02-16T02:59:32;95671.81;;;6.85;100.00
56038;BME280;41907;47.848;9.000;2024-02-16T03:01:57;95667.06;;;6.82;100.00
56038;BME280;41907;47.848;9.000;2024-02-16T03:04:23;95667.88;;;6.58;100.00
56038;BME280;41907;47.848;9.000;2024-02-16T03:06:51;95664.56;;;6.48;100.00
56038;BME280;41907;47.848;9.000;2024-02-16T03:09:17;95661.28;;;6.56;100.00
56038;BME280;41907;47.848;9.000;2024-02-16T03:11:42;95664.97;;;6.60;100.00
56038;BME280;41907;47.848;9.000;2024-02-16T03:14:07;95658.66;;;6.32;100.00
56038;BME280;41907;47.848;9.000;2024-02-16T03:16:33;95658.78;;;6.22;100.00
56038;BME280;41907;47.848;9.000;2024-02-16T03:18:58;95665.97;;;6.16;100.00
56038;BME280;41907;47.848;9.000;2024-02-16T03:21:24;95668.34;;;6.18;100.00
56038;BME280;41907;47.848;9.000;2024-02-16T03:23:49;95675.69;;;5.97;100.00
56038;BME280;41907;47.848;9.000;2024-02-16T03:26:16;95670.91;;;5.99;100.00
56038;BME280;41907;47.848;9.000;2024-02-16T03:28:44;95670.06;;;6.04;100.00
56038;BME280;41907;47.848;9.000;2024-02-16T03:31:18;95676.34;;;6.13;100.00
56038;BME280;41907;47.848;9.000;2024-02-16T03:33:43;95672.38;;;6.10;100.00
56038;BME280;41907;47.848;9.000;2024-02-16T03:36:09;95679.56;;;6.05;100.00
56038;BME280;41907;47.848;9.000;2024-02-16T03:38:34;95678.59;;;6.24;100.00
56038;BME280;41907;47.848;9.000;2024-02-16T03:41:00;95676.69;;;6.30;100.00
56038;BME280;41907;47.848;9.000;2024-02-16T03:43:25;95680.06;;;6.35;100.00
56038;BME280;41907;47.848;9.000;2024-02-16T03:45:51;95679.78;;;6.37;100.00
56038;BME280;41907;47.848;9.000;2024-02-16T03:48:16;95691.69;;;6.40;100.00
56038;BME280;41907;47.848;9.000;2024-02-16T03:50:42;95692.47;;;6.40;100.00
56038;BME280;41907;47.848;9.000;2024-02-16T03:53:07;95695.31;;;6.44;100.00
56038;BME280;41907;47.848;9.000;2024-02-16T03:55:33;95691.16;;;6.38;100.00
56038;BME280;41907;47.848;9.000;2024-02-16T03:58:01;95702.28;;;6.40;100.00
56038;BME280;41907;47.848;9.000;2024-02-16T04:00:27;95698.25;;;6.42;100.00
56038;BME280;41907;47.848;9.000;2024-02-16T04:02:53;95688.88;;;6.31;100.00
56038;BME280;41907;47.848;9.000;2024-02-16T04:05:18;95692.56;;;6.30;100.00
56038;BME280;41907;47.848;9.000;2024-02-16T04:07:43;95699.16;;;6.32;100.00
56038;BME280;41907;47.848;9.000;2024-02-16T04:10:09;95708.41;;;6.35;100.00
56038;BME280;41907;47.848;9.000;2024-02-16T04:12:34;95708.75;;;6.28;100.00
56038;BME280;41907;47.848;9.000;2024-02-16T04:15:01;95710.09;;;6.26;100.00
56038;BME280;41907;47.848;9.000;2024-02-16T04:17:26;95704.50;;;6.04;100.00
56038;BME280;41907;47.848;9.000;2024-02-16T04:19:51;95707.50;;;5.92;100.00
56038;BME280;41907;47.848;9.000;2024-02-16T04:22:17;95702.47;;;5.85;100.00
56038;BME280;41907;47.848;9.000;2024-02-16T04:24:42;95710.66;;;5.94;100.00
56038;BME280;41907;47.848;9.000;2024-02-16T04:27:08;95718.63;;;5.89;100.00
56038;BME280;41907;47.848;9.000;2024-02-16T04:29:33;95715.97;;;5.94;100.00
56038;BME280;41907;47.848;9.000;2024-02-16T04:31:58;95718.50;;;6.04;100.00
56038;BME280;41907;47.848;9.000;2024-02-16T04:34:24;95716.88;;;6.08;100.00
56038;BME280;41907;47.848;9.000;2024-02-16T04:36:49;95712.38;;;6.09;100.00
56038;BME280;41907;47.848;9.000;2024-02-16T04:39:14;95724.00;;;6.13;100.00
56038;BME280;41907;47.848;9.000;2024-02-16T04:41:40;95719.78;;;6.12;100.00
56038;BME280;41907;47.848;9.000;2024-02-16T04:44:05;95723.75;;;6.09;100.00
56038;BME280;41907;47.848;9.000;2024-02-16T04:46:31;95724.28;;;6.11;100.00
56038;BME280;41907;47.848;9.000;2024-02-16T04:48:56;95730.38;;;6.12;100.00
56038;BME280;41907;47.848;9.000;2024-02-16T04:51:22;95728.00;;;6.10;100.00
56038;BME280;41907;47.848;9.000;2024-02-16T04:53:47;95727.47;;;6.08;100.00
56038;BME280;41907;47.848;9.000;2024-02-16T04:56:13;95723.25;;;6.07;100.00
56038;BME280;41907;47.848;9.000;2024-02-16T04:58:42;95730.38;;;6.07;100.00
56038;BME280;41907;47.848;9.000;2024-02-16T05:01:07;95720.41;;;5.98;100.00
56038;BME280;41907;47.848;9.000;2024-02-16T05:03:33;95728.22;;;5.80;100.00
56038;BME280;41907;47.848;9.000;2024-02-16T05:06:00;95725.56;;;5.80;100.00
56038;BME280;41907;47.848;9.000;2024-02-16T05:08:25;95730.06;;;5.79;100.00
56038;BME280;41907;47.848;9.000;2024-02-16T05:10:50;95726.09;;;5.82;100.00
56038;BME280;41907;47.848;9.000;2024-02-16T05:13:16;95732.94;;;5.88;100.00
56038;BME280;41907;47.848;9.000;2024-02-16T05:15:42;95730.03;;;5.84;100.00
56038;BME280;41907;47.848;9.000;2024-02-16T05:18:08;95726.41;;;5.75;100.00
56038;BME280;41907;47.848;9.000;2024-02-16T05:20:37;95730.81;;;5.90;100.00
56038;BME280;41907;47.848;9.000;2024-02-16T05:23:03;95724.19;;;5.92;100.00
56038;BME280;41907;47.848;9.000;2024-02-16T05:25:28;95729.41;;;5.97;100.00
56038;BME280;41907;47.848;9.000;2024-02-16T05:27:53;95727.41;;;5.79;100.00
56038;BME280;41907;47.848;9.000;2024-02-16T05:30:19;95734.50;;;5.89;100.00
56038;BME280;41907;47.848;9.000;2024-02-16T05:32:44;95727.63;;;5.88;100.00
56038;BME280;41907;47.848;9.000;2024-02-16T05:35:10;95735.69;;;5.73;100.00
56038;BME280;41907;47.848;9.000;2024-02-16T05:37:46;95735.50;;;5.59;100.00
56038;BME280;41907;47.848;9.000;2024-02-16T05:40:19;95732.00;;;5.69;100.00
56038;BME280;41907;47.848;9.000;2024-02-16T05:42:51;95734.72;;;5.58;100.00
56038;BME280;41907;47.848;9.000;2024-02-16T05:45:16;95730.47;;;5.63;100.00
56038;BME280;41907;47.848;9.000;2024-02-16T05:47:42;95733.19;;;5.52;100.00
56038;BME280;41907;47.848;9.000;2024-02-16T05:50:11;95724.03;;;5.35;100.00
56038;BME280;41907;47.848;9.000;2024-02-16T05:52:38;95734.13;;;5.28;100.00
56038;BME280;41907;47.848;9.000;2024-02-16T05:55:04;95740.44;;;5.37;100.00
56038;BME280;41907;47.848;9.000;2024-02-16T05:57:29;95737.00;;;5.31;100.00
56038;BME280;41907;47.848;9.000;2024-02-16T05:59:54;95743.13;;;5.27;100.00
56038;BME280;41907;47.848;9.000;2024-02-16T06:02:20;95743.34;;;5.35;100.00
56038;BME280;41907;47.848;9.000;2024-02-16T06:04:45;95743.34;;;5.30;100.00
56038;BME280;41907;47.848;9.000;2024-02-16T06:07:10;95746.31;;;5.23;100.00
56038;BME280;41907;47.848;9.000;2024-02-16T06:09:36;95745.00;;;5.21;100.00
56038;BME280;41907;47.848;9.000;2024-02-16T06:12:05;95742.91;;;5.18;100.00
56038;BME280;41907;47.848;9.000;2024-02-16T06:14:32;95741.34;;;5.12;100.00
56038;BME280;41907;47.848;9.000;2024-02-16T06:16:57;95743.47;;;5.10;100.00
56038;BME280;41907;47.848;9.000;2024-02-16T06:19:23;95751.84;;;5.27;100.00
56038;BME280;41907;47.848;9.000;2024-02-16T06:21:48;95756.31;;;5.32;100.00
56038;BME280;41907;47.848;9.000;2024-02-16T06:24:13;95760.59;;;5.22;100.00
56038;BME280;41907;47.848;9.000;2024-02-16T06:26:39;95762.94;;;5.29;100.00
56038;BME280;41907;47.848;9.000;2024-02-16T06:29:04;95767.50;;;5.18;100.00
56038;BME280;41907;47.848;9.000;2024-02-16T06:31:29;95767.69;;;5.32;100.00
56038;BME280;41907;47.848;9.000;2024-02-16T06:33:55;95772.97;;;5.32;100.00
56038;BME280;41907;47.848;9.000;2024-02-16T06:36:21;95776.59;;;5.46;100.00
56038;BME280;41907;47.848;9.000;2024-02-16T06:38:46;95779.16;;;5.61;100.00
56038;BME280;41907;47.848;9.000;2024-02-16T06:41:12;95776.44;;;5.67;100.00
56038;BME280;41907;47.848;9.000;2024-02-16T06:43:37;95777.44;;;5.81;100.00
56038;BME280;41907;47.848;9.000;2024-02-16T06:46:03;95784.78;;;5.94;100.00
56038;BME280;41907;47.848;9.000;2024-02-16T06:48:30;95795.13;;;5.85;100.00
56038;BME280;41907;47.848;9.000;2024-02-16T06:50:55;95792.72;;;5.94;100.00
56038;BME280;41907;47.848;9.000;2024-02-16T06:53:20;95796.38;;;5.98;100.00
56038;BME280;41907;47.848;9.000;2024-02-16T06:55:46;95791.38;;;5.96;100.00
56038;BME280;41907;47.848;9.000;2024-02-16T06:58:11;95793.16;;;6.06;100.00
56038;BME280;41907;47.848;9.000;2024-02-16T07:00:36;95798.97;;;6.08;100.00
56038;BME280;41907;47.848;9.000;2024-02-16T07:03:02;95800.34;;;6.01;100.00
56038;BME280;41907;47.848;9.000;2024-02-16T07:05:27;95796.66;;;5.96;100.00
56038;BME280;41907;47.848;9.000;2024-02-16T07:07:53;95797.66;;;6.06;100.00
56038;BME280;41907;47.848;9.000;2024-02-16T07:10:19;95803.22;;;6.04;100.00
56038;BME280;41907;47.848;9.000;2024-02-16T07:12:44;95804.91;;;6.24;100.00
56038;BME280;41907;47.848;9.000;2024-02-16T07:15:10;95807.91;;;6.46;100.00
56038;BME280;41907;47.848;9.000;2024-02-16T07:17:37;95807.19;;;6.64;100.00
56038;BME280;41907;47.848;9.000;2024-02-16T07:20:03;95803.47;;;6.65;100.00
56038;BME280;41907;47.848;9.000;2024-02-16T07:22:30;95803.63;;;6.79;100.00
56038;BME280;41907;47.848;9.000;2024-02-16T07:24:55;95808.97;;;6.98;100.00
56038;BME280;41907;47.848;9.000;2024-02-16T07:27:21;95809.53;;;6.95;100.00
56038;BME280;41907;47.848;9.000;2024-02-16T07:29:46;95815.34;;;7.21;100.00
56038;BME280;41907;47.848;9.000;2024-02-16T07:32:12;95817.31;;;7.34;100.00
56038;BME280;41907;47.848;9.000;2024-02-16T07:34:37;95813.91;;;7.28;100.00
56038;BME280;41907;47.848;9.000;2024-02-16T07:37:03;95815.94;;;7.36;100.00
56038;BME280;41907;47.848;9.000;2024-02-16T07:39:29;95820.28;;;7.70;100.00
56038;BME280;41907;47.848;9.000;2024-02-16T07:41:54;95814.59;;;8.14;100.00
56038;BME280;41907;47.848;9.000;2024-02-16T07:44:19;95822.84;;;8.31;100.00
56038;BME280;41907;47.848;9.000;2024-02-16T07:46:45;95821.97;;;8.36;100.00
56038;BME280;41907;47.848;9.000;2024-02-16T07:49:11;95827.06;;;8.32;100.00
56038;BME280;41907;47.848;9.000;2024-02-16T07:51:36;95820.22;;;8.45;100.00
56038;BME280;41907;47.848;9.000;2024-02-16T07:54:02;95829.44;;;8.66;100.00
56038;BME280;41907;47.848;9.000;2024-02-16T07:56:28;95835.81;;;9.39;100.00
56038;BME280;41907;47.848;9.000;2024-02-16T07:58:55;95821.66;;;11.87;100.00
56038;BME280;41907;47.848;9.000;2024-02-16T08:01:20;95824.63;;;13.86;84.90
56038;BME280;41907;47.848;9.000;2024-02-16T08:03:46;95824.78;;;14.64;75.88
56038;BME280;41907;47.848;9.000;2024-02-16T08:06:11;95835.28;;;14.36;75.15
56038;BME280;41907;47.848;9.000;2024-02-16T08:08:37;95833.78;;;13.55;77.86
56038;BME280;41907;47.848;9.000;2024-02-16T08:11:03;95836.78;;;13.07;83.38
56038;BME280;41907;47.848;9.000;2024-02-16T08:13:28;95833.56;;;13.31;80.10
56038;BME280;41907;47.848;9.000;2024-02-16T08:15:53;95831.34;;;13.33;79.89
56038;BME280;41907;47.848;9.000;2024-02-16T08:18:19;95835.75;;;14.17;75.99
56038;BME280;41907;47.848;9.000;2024-02-16T08:20:45;95830.50;;;14.00;74.84
56038;BME280;41907;47.848;9.000;2024-02-16T08:23:10;95830.06;;;14.39;72.91
56038;BME280;41907;47.848;9.000;2024-02-16T08:25:35;95836.97;;;14.94;69.52
56038;BME280;41907;47.848;9.000;2024-02-16T08:28:01;95838.72;;;14.78;69.60
56038;BME280;41907;47.848;9.000;2024-02-16T08:30:27;95833.16;;;15.65;66.79
56038;BME280;41907;47.848;9.000;2024-02-16T08:32:52;95839.34;;;16.69;63.45
56038;BME280;41907;47.848;9.000;2024-02-16T08:35:19;95833.34;;;17.67;57.33
56038;BME280;41907;47.848;9.000;2024-02-16T08:37:44;95842.16;;;18.53;52.66
56038;BME280;41907;47.848;9.000;2024-02-16T08:40:12;95843.19;;;18.83;50.48
56038;BME280;41907;47.848;9.000;2024-02-16T08:42:40;95842.94;;;18.53;50.81
56038;BME280;41907;47.848;9.000;2024-02-16T08:45:07;95842.69;;;18.23;51.38
56038;BME280;41907;47.848;9.000;2024-02-16T08:47:33;95850.84;;;18.81;50.25
56038;BME280;41907;47.848;9.000;2024-02-16T08:49:58;95850.69;;;18.55;50.24
56038;BME280;41907;47.848;9.000;2024-02-16T08:52:23;95854.75;;;18.45;51.83
56038;BME280;41907;47.848;9.000;2024-02-16T08:54:49;95855.34;;;19.16;48.59
56038;BME280;41907;47.848;9.000;2024-02-16T08:57:14;95852.59;;;18.35;49.72
56038;BME280;41907;47.848;9.000;2024-02-16T08:59:39;95854.38;;;17.30;52.77
56038;BME280;41907;47.848;9.000;2024-02-16T09:02:05;95859.91;;;17.05;53.51
56038;BME280;41907;47.848;9.000;2024-02-16T09:04:31;95859.91;;;16.50;55.74
56038;BME280;41907;47.848;9.000;2024-02-16T09:06:56;95864.47;;;17.17;54.27
56038;BME280;41907;47.848;9.000;2024-02-16T09:09:21;95867.56;;;17.03;53.04
56038;BME280;41907;47.848;9.000;2024-02-16T09:11:48;95864.81;;;16.08;56.36
56038;BME280;41907;47.848;9.000;2024-02-16T09:14:13;95865.28;;;16.50;57.82
56038;BME280;41907;47.848;9.000;2024-02-16T09:16:38;95866.94;;;16.66;57.41
56038;BME280;41907;47.848;9.000;2024-02-16T09:19:04;95871.59;;;17.25;55.01
56038;BME280;41907;47.848;9.000;2024-02-16T09:21:29;95874.22;;;17.53;54.28
56038;BME280;41907;47.848;9.000;2024-02-16T09:23:55;95884.31;;;17.88;53.61
56038;BME280;41907;47.848;9.000;2024-02-16T09:26:24;95880.69;;;17.64;53.79
56038;BME280;41907;47.848;9.000;2024-02-16T09:28:51;95883.47;;;18.18;53.46
56038;BME280;41907;47.848;9.000;2024-02-16T09:31:18;95883.69;;;18.10;52.95
56038;BME280;41907;47.848;9.000;2024-02-16T09:33:43;95884.59;;;17.67;54.67
56038;BME280;41907;47.848;9.000;2024-02-16T09:36:09;95885.97;;;17.61;55.70
56038;BME280;41907;47.848;9.000;2024-02-16T09:38:34;95887.19;;;17.79;53.38
56038;BME280;41907;47.848;9.000;2024-02-16T09:41:00;95899.06;;;17.31;56.33
56038;BME280;41907;47.848;9.000;2024-02-16T09:43:28;95896.06;;;17.79;55.20
56038;BME280;41907;47.848;9.000;2024-02-16T09:45:57;95897.63;;;17.80;53.82
56038;BME280;41907;47.848;9.000;2024-02-16T09:48:25;95898.91;;;17.39;54.85
56038;BME280;41907;47.848;9.000;2024-02-16T09:50:53;95900.25;;;17.77;53.93
56038;BME280;41907;47.848;9.000;2024-02-16T09:53:19;95897.31;;;18.87;50.43
56038;BME280;41907;47.848;9.000;2024-02-16T09:55:49;95902.25;;;19.04;48.71
56038;BME280;41907;47.848;9.000;2024-02-16T09:58:15;95899.13;;;17.78;52.00
56038;BME280;41907;47.848;9.000;2024-02-16T10:00:53;95894.91;;;17.96;52.62
56038;BME280;41907;47.848;9.000;2024-02-16T10:03:28;95902.41;;;18.38;50.95
56038;BME280;41907;47.848;9.000;2024-02-16T10:06:14;95899.38;;;18.39;50.38
56038;BME280;41907;47.848;9.000;2024-02-16T10:08:54;95903.84;;;19.28;48.91
56038;BME280;41907;47.848;9.000;2024-02-16T10:11:22;95905.97;;;20.33;46.39
56038;BME280;41907;47.848;9.000;2024-02-16T10:13:56;95913.03;;;21.71;43.43
56038;BME280;41907;47.848;9.000;2024-02-16T10:16:22;95916.38;;;22.49;39.71
56038;BME280;41907;47.848;9.000;2024-02-16T10:18:48;95924.56;;;23.43;38.36
56038;BME280;41907;47.848;9.000;2024-02-16T10:21:13;95932.31;;;23.34;38.32
56038;BME280;41907;47.848;9.000;2024-02-16T10:23:39;95934.38;;;23.80;38.39
56038;BME280;41907;47.848;9.000;2024-02-16T10:26:04;95935.19;;;24.44;36.32
56038;BME280;41907;47.848;9.000;2024-02-16T10:28:29;95926.03;;;25.14;35.07
56038;BME280;41907;47.848;9.000;2024-02-16T10:30:58;95942.97;;;24.45;35.59
56038;BME280;41907;47.848;9.000;2024-02-16T10:33:29;95944.19;;;22.83;37.44
56038;BME280;41907;47.848;9.000;2024-02-16T10:35:58;95940.91;;;20.94;41.46
56038;BME280;41907;47.848;9.000;2024-02-16T10:38:25;95946.94;;;19.82;43.61
56038;BME280;41907;47.848;9.000;2024-02-16T10:40:52;95943.28;;;19.48;44.81
56038;BME280;41907;47.848;9.000;2024-02-16T10:43:20;95941.59;;;20.09;44.61
56038;BME280;41907;47.848;9.000;2024-02-16T10:45:46;95937.13;;;20.72;42.91
56038;BME280;41907;47.848;9.000;2024-02-16T10:48:14;95932.34;;;20.92;42.52
56038;BME280;41907;47.848;9.000;2024-02-16T10:50:41;95932.19;;;21.11;42.59
56038;BME280;41907;47.848;9.000;2024-02-16T10:55:32;95934.16;;;20.28;43.68
56038;BME280;41907;47.848;9.000;2024-02-16T10:57:57;95932.59;;;19.36;45.68
56038;BME280;41907;47.848;9.000;2024-02-16T11:00:24;95929.47;;;19.34;47.00
56038;BME280;41907;47.848;9.000;2024-02-16T11:02:53;95930.63;;;19.33;47.11
56038;BME280;41907;47.848;9.000;2024-02-16T11:05:31;95943.13;;;20.32;44.30
56038;BME280;41907;47.848;9.000;2024-02-16T11:08:04;95926.56;;;21.64;42.66
56038;BME280;41907;47.848;9.000;2024-02-16T11:10:30;95927.47;;;21.38;42.42
56038;BME280;41907;47.848;9.000;2024-02-16T11:13:01;95933.75;;;21.46;42.60
56038;BME280;41907;47.848;9.000;2024-02-16T11:15:28;95933.44;;;21.54;42.10
56038;BME280;41907;47.848;9.000;2024-02-16T11:18:00;95927.72;;;20.63;43.84
56038;BME280;41907;47.848;9.000;2024-02-16T11:20:26;95930.34;;;19.84;46.07
56038;BME280;41907;47.848;9.000;2024-02-16T11:22:52;95931.75;;;19.51;46.51
56038;BME280;41907;47.848;9.000;2024-02-16T11:25:18;95925.78;;;19.23;47.61
56038;BME280;41907;47.848;9.000;2024-02-16T11:27:46;95921.41;;;19.15;47.83
56038;BME280;41907;47.848;9.000;2024-02-16T11:30:12;95926.59;;;18.85;48.26
56038;BME280;41907;47.848;9.000;2024-02-16T11:32:37;95918.41;;;18.46;50.12
56038;BME280;41907;47.848;9.000;2024-02-16T11:35:06;95924.56;;;18.28;51.21
56038;BME280;41907;47.848;9.000;2024-02-16T11:37:33;95914.00;;;18.38;50.33
56038;BME280;41907;47.848;9.000;2024-02-16T11:39:58;95926.66;;;18.53;49.63
56038;BME280;41907;47.848;9.000;2024-02-16T11:42:24;95922.91;;;18.23;50.00
56038;BME280;41907;47.848;9.000;2024-02-16T11:44:53;95926.97;;;17.98;51.46
56038;BME280;41907;47.848;9.000;2024-02-16T11:47:20;95915.81;;;17.99;50.70
56038;BME280;41907;47.848;9.000;2024-02-16T11:52:27;95913.19;;;19.11;47.22
56038;BME280;41907;47.848;9.000;2024-02-16T11:54:52;95923.38;;;19.18;47.54
56038;BME280;41907;47.848;9.000;2024-02-16T11:57:18;95913.28;;;19.80;46.44
56038;BME280;41907;47.848;9.000;2024-02-16T11:59:43;95909.03;;;20.58;45.56
56038;BME280;41907;47.848;9.000;2024-02-16T12:02:17;95912.38;;;21.07;43.36
56038;BME280;41907;47.848;9.000;2024-02-16T12:04:44;95902.34;;;21.45;42.51
56038;BME280;41907;47.848;9.000;2024-02-16T12:07:12;95902.13;;;21.24;43.44
56038;BME280;41907;47.848;9.000;2024-02-16T12:09:37;95899.88;;;21.29;42.19
56038;BME280;41907;47.848;9.000;2024-02-16T12:12:04;95908.19;;;20.01;44.17
56038;BME280;41907;47.848;9.000;2024-02-16T12:14:31;95905.97;;;19.38;45.96
56038;BME280;41907;47.848;9.000;2024-02-16T12:16:57;95905.09;;;18.73;47.59
56038;BME280;41907;47.848;9.000;2024-02-16T12:19:23;95899.97;;;18.33;48.61
56038;BME280;41907;47.848;9.000;2024-02-16T12:21:53;95902.34;;;18.34;49.13
56038;BME280;41907;47.848;9.000;2024-02-16T12:24:19;95896.16;;;17.67;50.28
56038;BME280;41907;47.848;9.000;2024-02-16T12:26:45;95905.63;;;17.45;51.29
56038;BME280;41907;47.848;9.000;2024-02-16T12:29:11;95904.28;;;17.55;51.61
56038;BME280;41907;47.848;9.000;2024-02-16T12:31:39;95907.22;;;17.19;52.62
56038;BME280;41907;47.848;9.000;2024-02-16T12:34:06;95910.56;;;16.72;54.04
56038;BME280;41907;47.848;9.000;2024-02-16T12:36:33;95909.84;;;16.87;53.65
56038;BME280;41907;47.848;9.000;2024-02-16T12:38:59;95908.31;;;16.74;54.56
56038;BME280;41907;47.848;9.000;2024-02-16T12:41:25;95912.13;;;16.73;55.08
56038;BME280;41907;47.848;9.000;2024-02-16T12:43:50;95907.94;;;16.88;54.98
56038;BME280;41907;47.848;9.000;2024-02-16T12:46:16;95915.53;;;16.46;55.99
56038;BME280;41907;47.848;9.000;2024-02-16T12:48:41;95907.88;;;16.08;57.28
56038;BME280;41907;47.848;9.000;2024-02-16T12:51:06;95908.78;;;15.87;58.75
56038;BME280;41907;47.848;9.000;2024-02-16T12:53:32;95908.97;;;16.19;59.21
56038;BME280;41907;47.848;9.000;2024-02-16T12:56:06;95914.81;;;15.96;58.86
56038;BME280;41907;47.848;9.000;2024-02-16T12:58:32;95916.06;;;16.11;59.14
56038;BME280;41907;47.848;9.000;2024-02-16T13:00:57;95911.78;;;16.10;59.79